Terminal Aerodrome Forecast
Issued by NWS Austin/San Antonio, TX

Home | Current Version | Previous Version | Text Only | Print | Product List | Glossary On
Versions: 1 2 3 4 5 6 7 8 9 10 11 12 13 14 15 16 17 18 19 20 21 22 23
000
FTUS44 KEWX 262350
TAFDRT
TAF
KDRT 262350Z 2700/2724 13011KT P6SM VCTS SCT050CB BKN100
      TEMPO 2700/2702 VRB15G25KT 2SM TSRA BR OVC025CB
     FM270400 11012G22KT P6SM VCSH BKN035 BKN100
     FM270700 12009KT P6SM OVC020
     FM271400 31010KT P6SM SCT025=

USA.gov is the U.S. government's official web portal to all federal, state and local government web resources and services.